createdAt,value
2022-12-12T00:02:10.983Z,100961.56
2022-12-12T00:04:37.657Z,100967.09
2022-12-12T00:07:04.340Z,100964.66
2022-12-12T00:09:30.867Z,100967.41
2022-12-12T00:11:57.413Z,100971.88
2022-12-12T00:14:23.930Z,100969.22
2022-12-12T00:16:50.420Z,100973.59
2022-12-12T00:19:16.986Z,100970.16
2022-12-12T00:21:43.545Z,100973.75
2022-12-12T00:24:10.816Z,100975.69
2022-12-12T00:26:37.424Z,100975.75
2022-12-12T00:29:04.492Z,100974.13
2022-12-12T00:31:31.443Z,100982.19
2022-12-12T00:33:58.385Z,100978.56
2022-12-12T00:36:28.623Z,100980.44
2022-12-12T00:38:55.715Z,100983.25
2022-12-12T00:41:22.797Z,100977.94
2022-12-12T00:43:49.894Z,100979.66
2022-12-12T00:46:18.932Z,100980.44
2022-12-12T00:48:45.550Z,100984.03
2022-12-12T00:51:19.795Z,100977.13
2022-12-12T00:53:47.221Z,100971.09
2022-12-12T00:56:16.148Z,100975.56
2022-12-12T00:58:43.037Z,100977.50
2022-12-12T01:01:15.229Z,100980.31
2022-12-12T01:03:42.489Z,100977.69
2022-12-12T01:06:10.148Z,100977.69
2022-12-12T01:08:38.021Z,100983.94
2022-12-12T01:11:05.428Z,100983.94
2022-12-12T01:13:32.137Z,100980.50
2022-12-12T01:15:58.928Z,100985.03
2022-12-12T01:18:25.701Z,100989.47
2022-12-12T01:20:52.571Z,100995.81
2022-12-12T01:23:19.315Z,100997.69
2022-12-12T01:25:45.937Z,101002.28
2022-12-12T01:28:12.837Z,101005.09
2022-12-12T01:30:39.461Z,101009.63
2022-12-12T01:33:06.113Z,101008.03
2022-12-12T01:35:34.548Z,101012.63
2022-12-12T01:38:01.123Z,101019.00
2022-12-12T01:40:30.613Z,101022.75
2022-12-12T01:42:57.259Z,101022.88
2022-12-12T01:45:57.884Z,101027.41
2022-12-12T01:48:30.275Z,101023.81
2022-12-12T01:50:59.721Z,101031.88
2022-12-12T01:53:29.568Z,101035.47
2022-12-12T01:55:57.396Z,101032.00
2022-12-12T01:58:24.861Z,101030.28
2022-12-12T02:00:51.896Z,101027.69
2022-12-12T02:03:18.579Z,101036.59
2022-12-12T02:05:54.789Z,101028.88
2022-12-12T02:08:23.150Z,101032.69
2022-12-12T02:10:50.000Z,101033.00
2022-12-12T02:13:20.419Z,101029.63
2022-12-12T02:16:23.745Z,101037.72
2022-12-12T02:19:11.835Z,101036.88
2022-12-12T02:21:42.238Z,101041.34
2022-12-12T02:24:40.805Z,101036.09
2022-12-12T02:27:44.852Z,101029.13
2022-12-12T02:30:18.299Z,101039.06
2022-12-12T02:32:50.171Z,101036.69
2022-12-12T02:35:35.052Z,101041.44
2022-12-12T02:38:34.455Z,101043.50
2022-12-12T02:41:45.857Z,101044.50
2022-12-12T02:44:24.616Z,101040.25
2022-12-12T02:47:04.033Z,101037.81
2022-12-12T02:49:38.875Z,101022.25
2022-12-12T02:52:07.085Z,101024.38
2022-12-12T02:54:34.753Z,101028.19
2022-12-12T02:57:02.383Z,101027.66
2022-12-12T02:59:40.279Z,101030.50
2022-12-12T03:02:25.409Z,101033.34
2022-12-12T03:05:28.989Z,101035.13
2022-12-12T03:08:36.553Z,101026.25
2022-12-12T03:11:12.826Z,101035.81
2022-12-12T03:13:46.155Z,101033.03
2022-12-12T03:16:38.747Z,101027.72
2022-12-12T03:19:27.115Z,101036.56
2022-12-12T03:22:07.120Z,101038.41
2022-12-12T03:25:03.288Z,101035.69
2022-12-12T03:27:47.238Z,101039.28
2022-12-12T03:30:16.423Z,101040.16
2022-12-12T03:32:50.823Z,101046.38
2022-12-12T03:35:26.298Z,101042.06
2022-12-12T03:38:00.716Z,101044.78
2022-12-12T03:40:33.318Z,101042.97
2022-12-12T03:43:07.591Z,101041.25
2022-12-12T03:45:53.883Z,101044.84
2022-12-12T03:48:29.311Z,101044.03
2022-12-12T03:50:59.376Z,101047.66
2022-12-12T03:53:38.460Z,101050.38
2022-12-12T03:56:31.695Z,101057.66
2022-12-12T03:59:14.800Z,101052.47
2022-12-12T04:01:50.018Z,101056.03
2022-12-12T04:04:41.697Z,101056.09
2022-12-12T04:07:21.807Z,101050.84
2022-12-12T04:10:07.656Z,101049.13
2022-12-12T04:12:58.889Z,101058.94
2022-12-12T04:15:41.283Z,101057.16
2022-12-12T04:18:25.455Z,101058.13
2022-12-12T04:21:32.802Z,101060.91
2022-12-12T04:24:23.627Z,101053.91
2022-12-12T04:27:10.251Z,101046.06
2022-12-12T04:29:50.732Z,101058.47
2022-12-12T04:32:17.155Z,101056.75
2022-12-12T04:35:02.250Z,101053.34
2022-12-12T04:37:39.089Z,101059.63
2022-12-12T04:40:10.399Z,101062.34
2022-12-12T04:42:43.391Z,101066.84
2022-12-12T04:45:15.460Z,101067.81
2022-12-12T04:47:46.660Z,101064.34
2022-12-12T04:50:14.292Z,101064.41
2022-12-12T04:52:43.309Z,101076.06
2022-12-12T04:55:20.004Z,101068.28
2022-12-12T04:57:50.192Z,101073.69
2022-12-12T05:00:17.470Z,101074.56
2022-12-12T05:02:54.595Z,101062.28
2022-12-12T05:05:39.453Z,101069.44
2022-12-12T05:08:39.289Z,101072.16
2022-12-12T05:11:06.855Z,101074.84
2022-12-12T05:13:36.952Z,101077.50
2022-12-12T05:16:35.220Z,101084.69
2022-12-12T05:19:02.759Z,101083.84
2022-12-12T05:21:29.285Z,101075.00
2022-12-12T05:23:55.906Z,101074.16
2022-12-12T05:26:31.557Z,101075.94
2022-12-12T05:29:03.669Z,101079.47
2022-12-12T05:31:33.357Z,101078.66
2022-12-12T05:33:59.932Z,101073.28
2022-12-12T05:36:26.611Z,101069.81
2022-12-12T05:38:53.228Z,101071.66
2022-12-12T05:41:19.878Z,101075.28
2022-12-12T05:43:46.500Z,101071.88
2022-12-12T05:46:13.805Z,101074.69
2022-12-12T05:48:40.659Z,101075.78
2022-12-12T05:51:07.271Z,101077.00
2022-12-12T05:53:41.981Z,101085.16
2022-12-12T05:56:11.385Z,101087.06
2022-12-12T05:58:41.728Z,101094.97
2022-12-12T06:01:09.109Z,101088.78
2022-12-12T06:03:35.769Z,101097.63
2022-12-12T06:06:06.573Z,101095.88
2022-12-12T06:08:33.240Z,101096.81
2022-12-12T06:10:59.865Z,101095.94
2022-12-12T06:13:26.426Z,101096.91
2022-12-12T06:15:53.018Z,101097.00
2022-12-12T06:18:19.683Z,101099.72
2022-12-12T06:20:46.274Z,101099.81
2022-12-12T06:23:12.961Z,101104.25
2022-12-12T06:25:39.657Z,101104.28
2022-12-12T06:28:06.225Z,101099.03
2022-12-12T06:30:33.484Z,101106.13
2022-12-12T06:33:00.036Z,101113.22
2022-12-12T06:35:26.605Z,101115.00
2022-12-12T06:37:53.161Z,101113.31
2022-12-12T06:40:19.748Z,101115.97
2022-12-12T06:42:48.442Z,101115.13
2022-12-12T06:45:16.134Z,101116.03
2022-12-12T06:47:42.880Z,101119.53
2022-12-12T06:50:09.661Z,101121.38
2022-12-12T06:52:36.189Z,101121.31
2022-12-12T06:55:03.005Z,101127.59
2022-12-12T06:57:29.600Z,101128.56
2022-12-12T06:59:56.284Z,101134.81
2022-12-12T07:02:29.295Z,101135.84
2022-12-12T07:04:56.867Z,101136.78
2022-12-12T07:07:23.519Z,101137.75
2022-12-12T07:09:50.152Z,101140.56
2022-12-12T07:12:16.684Z,101142.38
2022-12-12T07:14:43.301Z,101147.72
2022-12-12T07:17:09.825Z,101144.25
2022-12-12T07:19:36.379Z,101142.66
2022-12-12T07:22:09.310Z,101145.47
2022-12-12T07:24:36.860Z,101140.31
2022-12-12T07:27:04.172Z,101149.28
2022-12-12T07:29:30.733Z,101142.41
2022-12-12T07:31:57.539Z,101149.56
2022-12-12T07:34:24.182Z,101147.94
2022-12-12T07:36:50.882Z,101159.47
2022-12-12T07:39:21.000Z,101160.44
2022-12-12T07:41:48.245Z,101163.16
2022-12-12T07:44:19.549Z,101166.75
2022-12-12T07:46:52.202Z,101163.34
2022-12-12T07:49:18.794Z,101159.94
2022-12-12T07:51:48.885Z,101164.47
2022-12-12T07:54:15.841Z,101163.75
2022-12-12T07:56:42.449Z,101168.28
2022-12-12T07:59:09.105Z,101167.50
2022-12-12T08:01:35.780Z,101172.94
2022-12-12T08:04:02.390Z,101173.06
2022-12-12T08:06:28.929Z,101184.59
2022-12-12T08:08:55.479Z,101181.84
2022-12-12T08:11:23.888Z,101183.44
2022-12-12T08:13:51.187Z,101190.28
2022-12-12T08:16:21.246Z,101180.44
2022-12-12T08:18:48.942Z,101189.84
2022-12-12T08:21:21.459Z,101191.38
2022-12-12T08:23:52.259Z,101196.25
2022-12-12T08:26:19.061Z,101197.63
2022-12-12T08:28:49.093Z,101199.84
2022-12-12T08:31:17.529Z,101203.75
2022-12-12T08:33:44.675Z,101198.06
2022-12-12T08:36:16.354Z,101204.66
2022-12-12T08:38:43.646Z,101201.59
2022-12-12T08:41:11.527Z,101199.38
2022-12-12T08:43:39.488Z,101206.94
2022-12-12T08:46:11.004Z,101203.03
2022-12-12T08:48:40.352Z,101199.25
2022-12-12T08:51:07.344Z,101194.75
2022-12-12T08:53:34.176Z,101194.50
2022-12-12T08:56:00.831Z,101193.47
2022-12-12T08:58:27.435Z,101193.31
2022-12-12T09:00:54.101Z,101189.47
2022-12-12T09:03:24.785Z,101186.41
2022-12-12T09:05:55.448Z,101196.59
2022-12-12T09:08:22.123Z,101198.97
2022-12-12T09:10:50.528Z,101196.91
2022-12-12T09:13:17.346Z,101199.50
2022-12-12T09:15:43.919Z,101203.81
2022-12-12T09:18:10.475Z,101205.56
2022-12-12T09:20:37.026Z,101208.13
2022-12-12T09:23:03.645Z,101195.59
2022-12-12T09:25:32.057Z,101195.56
2022-12-12T09:27:58.877Z,101200.81
2022-12-12T09:30:25.448Z,101199.94
2022-12-12T09:32:52.028Z,101208.84
2022-12-12T09:35:18.524Z,101208.94
2022-12-12T09:37:45.073Z,101210.94
2022-12-12T09:40:19.255Z,101207.53
2022-12-12T09:42:51.480Z,101206.81
2022-12-12T09:45:20.122Z,101214.97
2022-12-12T09:47:50.694Z,101217.63
2022-12-12T09:50:41.698Z,101213.16
2022-12-12T09:53:15.802Z,101213.13
2022-12-12T09:55:53.658Z,101212.31
2022-12-12T09:58:23.667Z,101214.16
2022-12-12T10:01:05.079Z,101213.34
2022-12-12T10:03:49.541Z,101217.66
2022-12-12T10:09:25.128Z,101207.03
2022-12-12T10:11:54.960Z,101210.41
2022-12-12T10:14:33.005Z,101206.72
2022-12-12T10:17:01.949Z,101212.59
2022-12-12T10:19:35.278Z,101204.56
2022-12-12T10:22:08.215Z,101200.00
2022-12-12T10:24:53.283Z,101193.41
2022-12-12T10:27:19.939Z,101187.75
2022-12-12T10:29:48.638Z,101181.03
2022-12-12T10:32:29.526Z,101186.78
2022-12-12T10:35:27.001Z,101183.84
2022-12-12T10:38:11.888Z,101188.84
2022-12-12T10:40:57.645Z,101186.88
2022-12-12T10:43:34.444Z,101188.19
2022-12-12T10:46:31.046Z,101193.00
2022-12-12T10:48:57.903Z,101175.81
2022-12-12T10:51:27.890Z,101176.41
2022-12-12T10:53:55.517Z,101171.56
2022-12-12T10:56:25.688Z,101171.19
2022-12-12T10:58:57.428Z,101174.25
2022-12-12T11:02:09.216Z,101185.50
2022-12-12T11:04:27.704Z,101170.00
2022-12-12T11:06:56.262Z,101168.00
2022-12-12T11:09:26.850Z,101164.06
2022-12-12T11:12:02.055Z,101162.88
2022-12-12T11:15:02.140Z,101164.25
2022-12-12T11:17:36.067Z,101169.94
2022-12-12T11:20:08.207Z,101166.78
2022-12-12T11:22:38.761Z,101160.16
2022-12-12T11:25:07.332Z,101154.41
2022-12-12T11:27:40.580Z,101162.75
2022-12-12T11:30:22.555Z,101163.09
2022-12-12T11:32:52.085Z,101162.81
2022-12-12T11:35:45.636Z,101161.72
2022-12-12T11:38:18.715Z,101161.44
2022-12-12T11:40:46.914Z,101160.56
2022-12-12T11:43:27.478Z,101156.72
2022-12-12T11:46:03.122Z,101153.06
2022-12-12T11:48:51.579Z,101151.47
2022-12-12T11:51:34.839Z,101152.56
2022-12-12T11:54:04.716Z,101154.38
2022-12-12T11:56:50.104Z,101147.38
2022-12-12T11:59:28.584Z,101148.25
2022-12-12T12:02:09.319Z,101152.72
2022-12-12T12:04:53.228Z,101137.72
2022-12-12T12:07:32.618Z,101151.00
2022-12-12T12:10:43.605Z,101145.72
2022-12-12T12:13:32.372Z,101150.13
2022-12-12T12:16:15.819Z,101146.66
2022-12-12T12:18:54.444Z,101157.34
2022-12-12T12:21:28.746Z,101152.00
2022-12-12T12:24:19.696Z,101151.13
2022-12-12T12:27:00.933Z,101150.03
2022-12-12T12:30:01.143Z,101149.03
2022-12-12T12:32:36.719Z,101138.06
2022-12-12T12:35:53.026Z,101135.09
2022-12-12T12:38:46.584Z,101138.00
2022-12-12T12:41:29.369Z,101140.19
2022-12-12T12:44:04.415Z,101133.50
2022-12-12T12:47:03.167Z,101129.81
2022-12-12T12:49:51.716Z,101128.78
2022-12-12T12:52:57.057Z,101127.84
2022-12-12T12:55:28.688Z,101123.78
2022-12-12T12:57:55.315Z,101128.00
2022-12-12T13:00:26.713Z,101122.75
2022-12-12T13:02:56.396Z,101119.44
2022-12-12T13:05:45.341Z,101118.81
2022-12-12T13:08:26.917Z,101122.44
2022-12-12T13:10:59.680Z,101110.75
2022-12-12T13:13:31.405Z,101112.22
2022-12-12T13:16:18.048Z,101110.50
2022-12-12T13:18:47.992Z,101116.31
2022-12-12T13:21:25.050Z,101118.81
2022-12-12T13:24:16.996Z,101120.63
2022-12-12T13:26:55.776Z,101124.25
2022-12-12T13:29:40.111Z,101120.94
2022-12-12T13:32:18.898Z,101128.41
2022-12-12T13:34:50.816Z,101128.72
2022-12-12T13:37:20.919Z,101129.97
2022-12-12T13:39:58.508Z,101129.19
2022-12-12T13:42:25.172Z,101128.47
2022-12-12T13:44:51.908Z,101127.78
2022-12-12T13:47:24.628Z,101120.63
2022-12-12T13:50:01.068Z,101126.81
2022-12-12T13:52:33.085Z,101123.06
2022-12-12T13:55:11.632Z,101118.44
2022-12-12T13:58:17.155Z,101110.50
2022-12-12T14:00:43.936Z,101109.41
2022-12-12T14:03:10.475Z,101103.13
2022-12-12T14:05:41.128Z,101108.63
2022-12-12T14:08:10.690Z,101114.03
2022-12-12T14:10:43.563Z,101117.72
2022-12-12T14:13:17.386Z,101120.63
2022-12-12T14:15:45.296Z,101118.88
2022-12-12T14:18:29.965Z,101114.72
2022-12-12T14:21:02.332Z,101120.19
2022-12-12T14:23:30.477Z,101127.56
2022-12-12T14:25:59.792Z,101124.13
2022-12-12T14:28:31.915Z,101114.47
2022-12-12T14:31:16.500Z,101112.81
2022-12-12T14:33:46.077Z,101116.50
2022-12-12T14:36:49.685Z,101118.53
2022-12-12T14:39:51.559Z,101124.16
2022-12-12T14:43:20.522Z,101130.50
2022-12-12T14:45:37.253Z,101132.63
2022-12-12T14:48:20.564Z,101129.31
2022-12-12T14:50:49.767Z,101136.59
2022-12-12T14:53:23.675Z,101137.75
2022-12-12T14:56:00.437Z,101139.69
2022-12-12T14:58:30.286Z,101145.97
2022-12-12T15:00:59.822Z,101151.44
2022-12-12T15:03:33.718Z,101153.31
2022-12-12T15:06:18.756Z,101156.19
2022-12-12T15:08:45.433Z,101154.50
2022-12-12T15:11:16.841Z,101153.84
2022-12-12T15:13:55.140Z,101145.34
2022-12-12T15:16:29.740Z,101150.06
2022-12-12T15:18:58.714Z,101150.38
2022-12-12T15:21:25.695Z,101156.91
2022-12-12T15:23:52.351Z,101160.72
2022-12-12T15:26:26.295Z,101156.53
2022-12-12T15:28:53.431Z,101156.81
2022-12-12T15:31:20.839Z,101158.81
2022-12-12T15:33:49.332Z,101159.00
2022-12-12T15:36:28.383Z,101155.75
2022-12-12T15:39:24.483Z,101165.00
2022-12-12T15:41:51.149Z,101162.59
2022-12-12T15:44:19.945Z,101165.59
2022-12-12T15:46:48.282Z,101163.31
2022-12-12T15:49:47.129Z,101162.19
2022-12-12T15:52:21.199Z,101158.91
2022-12-12T15:54:54.749Z,101165.41
2022-12-12T15:57:25.764Z,101171.00
2022-12-12T15:59:58.282Z,101167.66
2022-12-12T16:02:33.037Z,101171.38
2022-12-12T16:05:18.116Z,101168.84
2022-12-12T16:07:44.953Z,101167.16
2022-12-12T16:10:11.681Z,101163.75
2022-12-12T16:12:58.591Z,101171.91
2022-12-12T16:15:34.066Z,101177.34
2022-12-12T16:18:05.452Z,101181.13
2022-12-12T16:20:33.174Z,101180.25
2022-12-12T16:23:33.567Z,101176.97
2022-12-12T16:26:00.185Z,101175.41
2022-12-12T16:28:29.444Z,101178.44
2022-12-12T16:31:04.408Z,101170.69
2022-12-12T16:33:35.016Z,101193.00
2022-12-12T16:36:07.617Z,101186.94
2022-12-12T16:38:34.868Z,101184.34
2022-12-12T16:41:06.756Z,101182.66
2022-12-12T16:43:37.052Z,101185.38
2022-12-12T16:46:03.834Z,101174.75
2022-12-12T16:48:36.007Z,101179.19
2022-12-12T16:51:06.183Z,101175.69
2022-12-12T16:53:34.977Z,101172.16
2022-12-12T16:56:02.716Z,101170.53
2022-12-12T16:58:32.319Z,101175.97
2022-12-12T17:01:00.340Z,101169.09
2022-12-12T17:03:42.657Z,101172.81
2022-12-12T17:06:09.292Z,101173.91
2022-12-12T17:08:35.951Z,101176.75
2022-12-12T17:11:10.040Z,101170.69
2022-12-12T17:13:41.216Z,101166.41
2022-12-12T17:16:07.861Z,101162.94
2022-12-12T17:18:34.501Z,101169.22
2022-12-12T17:21:01.035Z,101172.88
2022-12-12T17:23:29.130Z,101170.31
2022-12-12T17:26:01.062Z,101180.06
2022-12-12T17:28:31.946Z,101180.13
2022-12-12T17:30:58.689Z,101171.25
2022-12-12T17:33:25.633Z,101172.16
2022-12-12T17:35:59.571Z,101159.88
2022-12-12T17:38:26.251Z,101166.09
2022-12-12T17:40:54.012Z,101159.16
2022-12-12T17:43:20.652Z,101167.31
2022-12-12T17:45:57.328Z,101172.66
2022-12-12T17:48:23.879Z,101164.75
2022-12-12T17:51:01.645Z,101160.44
2022-12-12T17:53:36.656Z,101161.41
2022-12-12T17:56:08.182Z,101165.09
2022-12-12T17:58:41.206Z,101174.94
2022-12-12T18:01:20.685Z,101168.88
2022-12-12T18:03:48.143Z,101170.66
2022-12-12T18:06:15.811Z,101167.13
2022-12-12T18:08:42.758Z,101161.84
2022-12-12T18:11:11.628Z,101169.78
2022-12-12T18:13:39.812Z,101168.13
2022-12-12T18:16:10.620Z,101163.78
2022-12-12T18:18:37.303Z,101155.00
2022-12-12T18:21:05.859Z,101162.13
2022-12-12T18:23:33.145Z,101160.38
2022-12-12T18:26:08.910Z,101161.31
2022-12-12T18:28:35.988Z,101169.28
2022-12-12T18:31:03.632Z,101160.50
2022-12-12T18:33:30.488Z,101165.81
2022-12-12T18:36:01.771Z,101158.81
2022-12-12T18:38:28.940Z,101170.34
2022-12-12T18:40:55.561Z,101162.44
2022-12-12T18:43:24.199Z,101169.59
2022-12-12T18:45:50.868Z,101164.34
2022-12-12T18:48:17.417Z,101167.84
2022-12-12T18:50:43.940Z,101169.69
2022-12-12T18:53:10.438Z,101162.69
2022-12-12T18:55:43.614Z,101169.84
2022-12-12T18:58:11.026Z,101169.94
2022-12-12T19:00:40.309Z,101163.94
2022-12-12T19:03:08.080Z,101159.69
2022-12-12T19:05:40.396Z,101152.88
2022-12-12T19:08:07.473Z,101154.84
2022-12-12T19:10:35.978Z,101158.56
2022-12-12T19:13:03.015Z,101165.88
2022-12-12T19:15:29.748Z,101161.63
2022-12-12T19:17:57.388Z,101162.69
2022-12-12T19:20:24.949Z,101159.34
2022-12-12T19:22:51.583Z,101168.34
2022-12-12T19:25:18.859Z,101166.66
2022-12-12T19:27:45.628Z,101168.50
2022-12-12T19:30:13.608Z,101169.44
2022-12-12T19:32:41.782Z,101168.69
2022-12-12T19:35:08.614Z,101168.78
2022-12-12T19:37:38.260Z,101168.91
2022-12-12T19:40:05.253Z,101167.31
2022-12-12T19:42:31.734Z,101173.66
2022-12-12T19:44:58.236Z,101171.16
2022-12-12T19:47:25.443Z,101168.59
2022-12-12T19:49:52.022Z,101180.97
2022-12-12T19:52:19.689Z,101179.16
2022-12-12T19:54:46.332Z,101175.53
2022-12-12T19:57:12.856Z,101181.63
2022-12-12T19:59:39.528Z,101173.56
2022-12-12T20:02:07.118Z,101190.19
2022-12-12T20:04:33.709Z,101180.47
2022-12-12T20:07:00.284Z,101177.81
2022-12-12T20:09:29.268Z,101182.25
2022-12-12T20:11:57.913Z,101180.50
2022-12-12T20:14:26.903Z,101181.38
2022-12-12T20:16:54.464Z,101180.47
2022-12-12T20:19:22.343Z,101176.91
2022-12-12T20:22:05.609Z,101180.47
2022-12-12T20:24:33.681Z,101180.50
2022-12-12T20:27:02.952Z,101179.69
2022-12-12T20:29:29.437Z,101174.34
2022-12-12T20:31:56.016Z,101182.25
2022-12-12T20:34:24.399Z,101182.13
2022-12-12T20:36:51.846Z,101187.38
2022-12-12T20:39:20.878Z,101184.63
2022-12-12T20:41:48.540Z,101182.84
2022-12-12T20:44:15.323Z,101180.19
2022-12-12T20:46:44.482Z,101182.03
2022-12-12T20:49:16.114Z,101190.06
2022-12-12T20:51:55.179Z,101190.25
2022-12-12T20:54:24.419Z,101193.03
2022-12-12T20:56:52.233Z,101185.13
2022-12-12T20:59:18.819Z,101192.22
2022-12-12T21:01:47.117Z,101188.69
2022-12-12T21:04:14.146Z,101192.25
2022-12-12T21:06:47.781Z,101202.88
2022-12-12T21:09:22.791Z,101186.19
2022-12-12T21:11:52.074Z,101189.69
2022-12-12T21:14:18.823Z,101191.53
2022-12-12T21:16:45.344Z,101188.09
2022-12-12T21:19:13.642Z,101186.44
2022-12-12T21:21:42.076Z,101189.22
2022-12-12T21:24:11.963Z,101195.50
2022-12-12T21:26:38.911Z,101191.16
2022-12-12T21:29:05.813Z,101192.94
2022-12-12T21:31:36.813Z,101190.22
2022-12-12T21:34:05.303Z,101191.94
2022-12-12T21:36:32.585Z,101187.47
2022-12-12T21:39:01.127Z,101193.53
2022-12-12T21:41:28.367Z,101192.69
2022-12-12T21:43:59.381Z,101193.63
2022-12-12T21:46:27.545Z,101197.22
2022-12-12T21:49:12.716Z,101193.75
2022-12-12T21:51:40.777Z,101186.63
2022-12-12T21:54:09.426Z,101186.59
2022-12-12T21:56:36.044Z,101191.78
2022-12-12T21:59:03.370Z,101193.56
2022-12-12T22:01:31.889Z,101186.44
2022-12-12T22:03:59.497Z,101189.16
2022-12-12T22:06:28.615Z,101197.19
2022-12-12T22:08:56.305Z,101192.00
2022-12-12T22:11:40.485Z,101190.38
2022-12-12T22:14:10.824Z,101185.22
2022-12-12T22:16:37.739Z,101186.22
2022-12-12T22:19:08.082Z,101185.44
2022-12-12T22:21:35.487Z,101189.16
2022-12-12T22:24:02.524Z,101191.06
2022-12-12T22:26:39.316Z,101199.19
2022-12-12T22:29:09.907Z,101199.34
2022-12-12T22:31:38.130Z,101194.22
2022-12-12T22:34:12.348Z,101196.03
2022-12-12T22:36:39.759Z,101198.72
2022-12-12T22:39:08.460Z,101197.91
2022-12-12T22:41:35.077Z,101193.50
2022-12-12T22:44:04.091Z,101199.72
2022-12-12T22:46:31.387Z,101196.19
2022-12-12T22:49:00.336Z,101200.63
2022-12-12T22:51:29.726Z,101204.13
2022-12-12T22:53:57.952Z,101200.63
2022-12-12T22:56:24.556Z,101205.03
2022-12-12T22:58:51.095Z,101202.34
2022-12-12T23:01:21.205Z,101200.50
2022-12-12T23:03:48.550Z,101201.25
2022-12-12T23:06:18.548Z,101191.50
2022-12-12T23:08:50.894Z,101189.78
2022-12-12T23:11:18.688Z,101188.97
2022-12-12T23:13:45.653Z,101181.97
2022-12-12T23:16:16.257Z,101183.84
2022-12-12T23:18:43.844Z,101176.91
2022-12-12T23:21:16.756Z,101170.78
2022-12-12T23:23:44.845Z,101169.94
2022-12-12T23:26:16.773Z,101164.75
2022-12-12T23:28:44.246Z,101154.25
2022-12-12T23:31:20.079Z,101157.03
2022-12-12T23:33:47.004Z,101156.28
2022-12-12T23:36:15.195Z,101153.78
2022-12-12T23:38:42.515Z,101153.94
2022-12-12T23:41:12.442Z,101146.22
2022-12-12T23:43:40.283Z,101146.38
2022-12-12T23:46:27.945Z,101150.03
2022-12-12T23:48:59.410Z,101150.16
2022-12-12T23:51:27.864Z,101155.50
2022-12-12T23:53:57.682Z,101152.03
2022-12-12T23:56:24.803Z,101157.41
2022-12-12T23:58:58.472Z,101144.22
